Seattle, WA (98105)

8:28 PM PST on February 19, 2017 (GMT -0800)
| | Change Station
Active Advisory: Small Craft Advisory

Elev -9999 ft 0.00 °N, 0.00 °E | Updated 4 minutes ago

Mostly Cloudy
Mostly Cloudy
°F
Feels Like °F
N
Wind Variable Wind from North
Gusts mph

Today
High -- | Low -- °F
--% Chance of Precip.
Yesterday
High -- | Low -- °F
Precip. -- in
Pressure 29.58 in
Visibility 10.0 miles
Clouds Few 3800 ft
Dew Point Not available.
Humidity Not available.
Rainfall --
Snow Depth Not available.
7:07 AM 5:39 PM
Last Quarter, 37% visible
METAR KBFI 200353Z 16008KT 10SM FEW038 06/04 A2958 RMK AO2 SLP017 T00610044
Pressure 29.58 in
Visibility 10.0 miles
Clouds Few 3800 ft
Dew Point Not available.
Humidity Not available.
Rainfall --
Snow Depth Not available.
7:07 AM 5:39 PM
Last Quarter, 37% visible
METAR KBFI 200353Z 16008KT 10SM FEW038 06/04 A2958 RMK AO2 SLP017 T00610044

Get Your Daily Forecast Email!

Thanks for signing up!

Be on the lookout for a verification email in your inbox.

You'll start receiving the daily forecast at 8 AM.

×

10-Day Weather Forecast

Almanac

Astronomy

Feb. 19, 2017 Rise Set
Actual Time
Civil Twilight
Nautical Twilight
Astronomical Twilight
Moon
Length of Visible Light
Length of Day
Tomorrow will be .
, % of the Moon is Illuminated

Today's Extremes

State Highs State Lows

Community

WunderPhotos

Upload Photos

1,962,540 photos uploaded!

WunderBlog® & News

Nearby

Air Quality

  Air Quality AQ Index Pollutant
Not available.

Snow Depth

Station Depth Elevation

Earthquake Activity

City Distance Mag. Time & Date
Minimum magnitude displayed is 2.5.

Coastal Water Temperatures

Place Temperature

Stations

Nearby Weather Stations

Station Location Temp. Windchill Dew Point Humidity Wind Precip. Elev Updated Type
                   

Watches & Warnings

Small Craft Advisory
Issued: 7:02 PM PST Feb. 19, 2017 – National Weather Service

... Small Craft Advisory remains in effect until midnight PST
tonight...

* winds... southeast 15 to 25 knots becoming south. Wind easing to
less than 20 knots late this evening.

* Waves/seas... wind waves 2 to 4 feet.

Precautionary/preparedness actions...

A Small Craft Advisory means that wind speeds of 21 to 33 knots are
expected to produce hazardous wave conditions to small craft.
Inexperienced mariners... especially those operating smaller vessels
should avoid navigating in these conditions.